モスクワ/シェレメーチエヴォ の空港の天気 - METARとTAF

シェレメーチエヴォ国際空港(モスクワ) ( UUEE / SVO ) - ロシア モスクワ
飛行場実況気象(Metar)
観測時間08/11 10:00 MSK (08/11 07:00 UTC)
風向・風速北西 6m/s
視程10km以上
天気現象
少しの雲 雲底高度 580m
気温16℃
湿度72%
気圧1013hPa
METARUUEE 110700Z 31006MPS 9999 FEW019 16/11 Q1013 R24L/CLRD62 NOSIG
過去の天気等 Google飛行場航空写真 Wunderground天気予報

過去48時間のMETAR

飛行場予報(TAF)
発表時間: 8/11 07:50 MSK (8/11 04:50 UTC)
予報対象時間: 11日9時 MSK ~ 12日9時 MSK
風向・風速北西 7m/s 瞬間風速 13m/s
視程10km以上
全天の4割程度の雲 雲底高度 610m
11日9時 MSK ~ 11日12時 MSK に一時的に
天気現象弱いしゅう雨
少しの雲 雲底高度 120m
全天の8割程度の積乱雲 雲底高度 490m
11日22時 MSK ~ 12日9時 MSK に一時的に
天気現象弱い雨
全天の4割程度の雲 雲底高度 120m
全天の8割程度の雲 雲底高度 340m
TAF UUEE 110450Z 1106/1206 32007G13MPS 9999 SCT020 TX19/1112Z TN11/1201Z
TEMPO 1106/1109 -SHRA FEW004 BKN016CB
TEMPO 1119/1206 -RA SCT004 BKN011